Time;durP1;ratioP1;P1;durP2;ratioP2;P2;SDS_P1;SDS_P2;PMS_P1;PMS_P2;Temp;Humidity;BMP_temperature;BMP_pressure;BME280_temperature;BME280_humidity;BME280_pressure;Samples;Min_cycle;Max_cycle;Signal;HPM_P1;HPM_P2
2024/03/18 00:00:00;;;;;;;0.30;0.20;;;8.70;96.60;;;;;;5064522;28;20207;-74
2024/03/18 00:02:30;;;;;;;0.30;0.20;;;8.70;96.70;;;;;;5065686;28;20596;-79
2024/03/18 00:04:56;;;;;;;0.30;0.20;;;8.80;96.60;;;;;;5065397;28;20192;-79
2024/03/18 00:07:23;;;;;;;0.30;0.20;;;8.80;96.60;;;;;;5066423;28;20166;-74
2024/03/18 00:09:49;;;;;;;0.30;0.20;;;8.80;97.50;;;;;;5064474;28;20502;-74
2024/03/18 00:12:15;;;;;;;0.30;0.20;;;8.80;97.50;;;;;;5065953;28;20232;-74
2024/03/18 00:14:43;;;;;;;0.30;0.20;;;8.90;97.60;;;;;;5066029;28;20418;-74
2024/03/18 00:17:09;;;;;;;0.30;0.30;;;8.90;97.20;;;;;;5065522;28;20461;-74
2024/03/18 00:19:35;;;;;;;0.30;0.20;;;8.90;97.20;;;;;;5066432;28;20228;-79
2024/03/18 00:22:01;;;;;;;0.30;0.20;;;8.80;97.60;;;;;;5065803;28;20177;-79
2024/03/18 00:24:27;;;;;;;0.30;0.20;;;8.90;97.60;;;;;;5064450;28;20520;-79
2024/03/18 00:26:52;;;;;;;0.30;0.30;;;8.80;97.50;;;;;;5065486;28;20211;-77
2024/03/18 00:29:18;;;;;;;0.30;0.20;;;8.80;97.90;;;;;;5065662;28;20688;-74
2024/03/18 00:31:44;;;;;;;0.30;0.20;;;8.70;98.20;;;;;;5065190;28;20264;-79
2024/03/18 00:34:10;;;;;;;1.58;1.48;;;8.70;98.30;;;;;;5065620;28;20189;-78
2024/03/18 00:36:35;;;;;;;0.30;0.20;;;8.70;98.60;;;;;;5065241;28;20196;-78
2024/03/18 00:39:01;;;;;;;0.30;0.20;;;8.70;98.00;;;;;;5064477;28;20551;-74
2024/03/18 00:41:48;;;;;;;0.30;0.20;;;8.70;98.50;;;;;;5065166;28;20173;-74
2024/03/18 00:44:23;;;;;;;0.30;0.20;;;8.70;98.50;;;;;;5064409;28;20226;-74
2024/03/18 00:46:49;;;;;;;0.30;0.30;;;8.70;98.40;;;;;;5063959;28;20259;-74
2024/03/18 00:49:15;;;;;;;0.30;0.20;;;8.70;97.80;;;;;;5065522;28;20271;-74
2024/03/18 00:51:41;;;;;;;0.30;0.20;;;8.70;97.70;;;;;;5064023;28;21034;-74
2024/03/18 00:54:09;;;;;;;0.30;0.20;;;8.70;97.70;;;;;;5064186;28;20439;-79
2024/03/18 00:56:38;;;;;;;0.30;0.20;;;8.70;97.70;;;;;;5064080;28;20548;-76
2024/03/18 00:59:05;;;;;;;0.30;0.20;;;8.70;97.70;;;;;;5065616;28;20193;-74
2024/03/18 01:01:31;;;;;;;0.38;0.35;;;8.80;97.70;;;;;;5063706;28;20213;-73
2024/03/18 01:03:57;;;;;;;0.30;0.20;;;8.80;97.80;;;;;;5063800;28;20228;-73
2024/03/18 01:06:26;;;;;;;0.30;0.20;;;8.90;97.80;;;;;;5065132;28;20779;-79
2024/03/18 01:08:52;;;;;;;0.30;0.20;;;8.90;97.80;;;;;;5065084;28;20201;-74
2024/03/18 01:11:19;;;;;;;0.30;0.20;;;8.90;97.80;;;;;;5063143;28;20244;-79
2024/03/18 01:13:47;;;;;;;0.30;0.20;;;8.90;97.70;;;;;;5063823;28;20197;-73
2024/03/18 01:16:17;;;;;;;0.30;0.20;;;9.00;97.80;;;;;;5063780;28;20180;-74
2024/03/18 01:18:43;;;;;;;0.30;0.20;;;9.00;97.70;;;;;;5065033;28;20439;-78
2024/03/18 01:21:10;;;;;;;0.30;0.20;;;9.10;97.80;;;;;;5065092;28;20762;-79
2024/03/18 01:23:35;;;;;;;0.30;0.20;;;9.10;97.70;;;;;;5065357;28;20476;-79
2024/03/18 01:26:01;;;;;;;1.37;1.27;;;9.20;97.70;;;;;;5065260;28;20185;-74
2024/03/18 01:28:27;;;;;;;0.30;0.30;;;9.20;97.60;;;;;;5064876;28;20181;-79
2024/03/18 01:30:53;;;;;;;0.30;0.30;;;9.20;97.50;;;;;;5063215;28;20477;-79
2024/03/18 01:33:19;;;;;;;0.30;0.20;;;9.20;97.80;;;;;;5062984;28;20189;-74
2024/03/18 01:35:46;;;;;;;0.30;0.20;;;9.20;97.50;;;;;;5065252;28;20565;-79
2024/03/18 01:38:11;;;;;;;0.30;0.20;;;9.30;97.70;;;;;;5063376;28;20234;-78
2024/03/18 01:40:37;;;;;;;0.30;0.20;;;9.30;97.40;;;;;;5064782;28;20534;-73
2024/03/18 01:43:03;;;;;;;0.30;0.20;;;9.30;97.40;;;;;;5064830;28;20181;-78
2024/03/18 01:45:29;;;;;;;0.57;0.57;;;9.30;97.40;;;;;;5065030;28;20467;-74
2024/03/18 01:47:55;;;;;;;0.30;0.20;;;9.30;97.60;;;;;;5064954;28;20544;-74
2024/03/18 01:50:21;;;;;;;0.30;0.20;;;9.20;97.40;;;;;;5065084;28;20473;-79
2024/03/18 01:52:48;;;;;;;0.30;0.20;;;9.20;97.50;;;;;;5063002;28;20201;-79
2024/03/18 01:55:13;;;;;;;0.30;0.20;;;9.20;97.60;;;;;;5064892;28;20619;-79
2024/03/18 01:57:39;;;;;;;0.30;0.20;;;9.20;97.80;;;;;;5064773;28;20363;-79
2024/03/18 02:00:15;;;;;;;0.30;0.20;;;9.20;97.70;;;;;;5063477;28;20588;-79
2024/03/18 02:02:44;;;;;;;0.30;0.20;;;9.20;97.70;;;;;;5064604;28;20204;-73
2024/03/18 02:05:10;;;;;;;0.30;0.20;;;9.10;98.10;;;;;;5063326;28;20256;-74
2024/03/18 02:07:36;;;;;;;0.30;0.20;;;9.10;97.90;;;;;;5063376;28;20201;-74
2024/03/18 02:10:05;;;;;;;0.57;0.57;;;9.10;97.90;;;;;;5063304;28;20595;-78
2024/03/18 02:12:32;;;;;;;0.30;0.20;;;9.00;97.80;;;;;;5064426;28;20193;-78
2024/03/18 02:14:59;;;;;;;0.30;0.20;;;9.00;97.80;;;;;;5064552;28;20200;-74
2024/03/18 02:17:24;;;;;;;0.30;0.20;;;9.00;97.90;;;;;;5062985;28;20275;-74
2024/03/18 02:19:50;;;;;;;0.30;0.20;;;8.90;97.90;;;;;;5064795;28;20181;-74
2024/03/18 02:22:16;;;;;;;0.30;0.30;;;8.90;98.10;;;;;;5065568;28;20637;-74
2024/03/18 02:24:42;;;;;;;0.30;0.20;;;8.80;98.20;;;;;;5068574;28;20749;-73
2024/03/18 02:27:12;;;;;;;0.30;0.20;;;8.80;98.20;;;;;;5066485;28;20260;-78
2024/03/18 02:29:38;;;;;;;0.30;0.20;;;8.80;98.50;;;;;;5068179;28;20197;-74
2024/03/18 02:32:05;;;;;;;0.30;0.20;;;8.70;98.60;;;;;;5067312;28;20169;-79
2024/03/18 02:34:32;;;;;;;0.30;0.20;;;8.70;98.30;;;;;;5066424;28;20226;-79
2024/03/18 02:36:58;;;;;;;0.30;0.20;;;8.70;98.40;;;;;;5066541;28;20223;-79
2024/03/18 02:39:24;;;;;;;0.30;0.20;;;8.70;98.40;;;;;;5067822;28;20686;-78
2024/03/18 02:41:53;;;;;;;0.30;0.20;;;8.70;98.40;;;;;;5068022;28;20232;-78
2024/03/18 02:44:20;;;;;;;0.30;0.20;;;8.70;98.40;;;;;;5066380;28;20246;-78
2024/03/18 02:46:47;;;;;;;0.30;0.20;;;8.70;98.40;;;;;;5067954;28;20814;-73
2024/03/18 02:49:13;;;;;;;0.30;0.20;;;8.70;98.50;;;;;;5067663;28;20189;-78
2024/03/18 02:51:39;;;;;;;0.30;0.20;;;8.70;98.60;;;;;;5067924;28;20212;-74
2024/03/18 02:54:05;;;;;;;0.30;0.20;;;8.60;98.70;;;;;;5066166;28;20207;-79
2024/03/18 02:56:31;;;;;;;0.30;0.20;;;8.60;98.70;;;;;;5066186;28;20914;-78
2024/03/18 02:58:56;;;;;;;0.30;0.20;;;8.60;98.90;;;;;;5067557;28;20254;-77
2024/03/18 03:01:23;;;;;;;0.30;0.20;;;8.60;99.00;;;;;;5065945;28;20517;-79
2024/03/18 03:03:51;;;;;;;0.30;0.20;;;8.70;99.00;;;;;;5067429;28;20189;-80
2024/03/18 03:06:17;;;;;;;0.30;0.20;;;8.70;99.00;;;;;;5066056;28;20634;-78
2024/03/18 03:08:44;;;;;;;0.30;0.20;;;8.70;99.10;;;;;;5067356;28;20662;-74
2024/03/18 03:11:10;;;;;;;0.30;0.20;;;8.70;99.20;;;;;;5065366;28;20220;-77
2024/03/18 03:13:35;;;;;;;0.30;0.20;;;8.70;99.60;;;;;;5067146;28;20570;-79
2024/03/18 03:16:01;;;;;;;0.30;0.20;;;8.70;99.70;;;;;;5067361;28;20537;-74
2024/03/18 03:18:27;;;;;;;0.30;0.20;;;8.70;99.70;;;;;;5067126;28;20471;-79
2024/03/18 03:20:53;;;;;;;0.30;0.20;;;8.70;99.60;;;;;;5067256;28;20185;-78
2024/03/18 03:23:20;;;;;;;0.30;0.20;;;8.70;99.50;;;;;;5066894;28;20203;-73
2024/03/18 03:25:48;;;;;;;0.30;0.20;;;8.70;99.60;;;;;;5067335;28;20173;-74
2024/03/18 03:28:20;;;;;;;0.30;0.20;;;8.70;99.60;;;;;;5066669;28;20185;-74
2024/03/18 03:30:45;;;;;;;0.30;0.20;;;8.70;99.60;;;;;;5065838;28;20227;-78
2024/03/18 03:33:12;;;;;;;0.30;0.20;;;8.70;99.90;;;;;;5066187;28;20283;-74
2024/03/18 03:35:38;;;;;;;0.30;0.20;;;8.60;99.50;;;;;;5065246;28;20185;-78
2024/03/18 03:38:03;;;;;;;2.73;2.50;;;8.60;99.60;;;;;;5064449;28;20694;-74
2024/03/18 03:40:29;;;;;;;0.30;0.20;;;8.60;99.70;;;;;;5067115;28;20202;-74
2024/03/18 03:42:55;;;;;;;0.30;0.20;;;8.60;99.80;;;;;;5066308;28;20243;-79
2024/03/18 03:45:24;;;;;;;0.30;0.20;;;8.50;99.90;;;;;;5065368;28;20188;-74
2024/03/18 03:47:53;;;;;;;0.60;0.57;;;8.50;99.90;;;;;;5067022;28;20189;-74
2024/03/18 03:50:19;;;;;;;0.30;0.20;;;8.50;99.90;;;;;;5066527;28;20247;-76
2024/03/18 03:52:45;;;;;;;0.30;0.20;;;8.40;99.90;;;;;;5066634;28;20205;-74
2024/03/18 03:55:12;;;;;;;0.30;0.20;;;8.30;99.90;;;;;;5064960;28;20185;-74
2024/03/18 03:57:38;;;;;;;0.30;0.20;;;8.30;99.90;;;;;;5066372;28;20217;-74
2024/03/18 04:00:11;;;;;;;0.30;0.20;;;8.20;99.90;;;;;;5066359;28;20205;-80
2024/03/18 04:02:37;;;;;;;0.30;0.20;;;8.20;99.90;;;;;;5066247;28;20461;-76
2024/03/18 04:05:04;;;;;;;0.30;0.20;;;8.10;99.90;;;;;;5064817;28;20181;-80
2024/03/18 04:07:30;;;;;;;0.30;0.20;;;8.20;99.90;;;;;;5064487;28;20193;-74
2024/03/18 04:09:56;;;;;;;0.30;0.20;;;8.20;99.90;;;;;;5066095;28;20231;-80
2024/03/18 04:12:21;;;;;;;0.30;0.20;;;8.20;99.90;;;;;;5064472;28;20177;-74
2024/03/18 04:14:49;;;;;;;0.30;0.20;;;8.10;99.90;;;;;;5066645;28;20169;-80
2024/03/18 04:17:15;;;;;;;0.30;0.20;;;8.10;99.90;;;;;;5065586;28;20633;-74
2024/03/18 04:19:42;;;;;;;0.30;0.20;;;8.10;99.90;;;;;;5066260;28;20177;-73
2024/03/18 04:22:08;;;;;;;0.30;0.20;;;8.10;99.90;;;;;;5065895;28;20526;-80
2024/03/18 04:24:33;;;;;;;0.30;0.20;;;8.00;99.90;;;;;;5064477;28;20180;-74
2024/03/18 04:26:59;;;;;;;0.30;0.20;;;8.00;99.90;;;;;;5065388;28;20184;-74
2024/03/18 04:29:24;;;;;;;0.30;0.20;;;8.00;99.90;;;;;;5065727;28;20280;-80
2024/03/18 04:31:50;;;;;;;0.30;0.20;;;7.90;99.90;;;;;;5063951;28;20220;-74
2024/03/18 04:34:16;;;;;;;10.80;10.43;;;7.90;99.90;;;;;;5065499;28;20197;-80
2024/03/18 04:36:41;;;;;;;0.30;0.20;;;7.90;99.90;;;;;;5064890;28;20275;-73
2024/03/18 04:39:08;;;;;;;0.30;0.20;;;7.90;99.90;;;;;;5065039;28;20207;-74
2024/03/18 04:41:36;;;;;;;0.30;0.20;;;7.90;99.90;;;;;;5064271;28;20430;-80
2024/03/18 04:44:01;;;;;;;0.30;0.30;;;7.80;99.90;;;;;;5064106;28;20196;-74
2024/03/18 04:46:27;;;;;;;0.30;0.20;;;7.80;99.90;;;;;;5065138;28;20236;-74
2024/03/18 04:48:53;;;;;;;0.30;0.20;;;7.80;99.90;;;;;;5064461;28;20220;-74
2024/03/18 04:51:18;;;;;;;0.40;0.40;;;7.80;99.90;;;;;;5065424;28;20224;-74
2024/03/18 04:53:44;;;;;;;0.30;0.20;;;7.70;99.90;;;;;;5065209;28;20200;-73
2024/03/18 04:56:09;;;;;;;0.30;0.20;;;7.80;99.90;;;;;;5063940;28;20722;-81
2024/03/18 04:58:35;;;;;;;0.30;0.20;;;7.80;99.90;;;;;;5063916;28;20201;-81
2024/03/18 05:01:01;;;;;;;0.30;0.20;;;7.90;99.90;;;;;;5065415;28;20211;-74
2024/03/18 05:03:27;;;;;;;0.30;0.20;;;7.90;99.90;;;;;;5063938;28;20335;-80
2024/03/18 05:05:53;;;;;;;0.30;0.20;;;8.00;99.90;;;;;;5062622;28;20216;-74
2024/03/18 05:08:18;;;;;;;0.30;0.20;;;8.10;99.90;;;;;;5063053;28;20197;-81
2024/03/18 05:10:45;;;;;;;0.30;0.20;;;8.10;99.90;;;;;;5062734;28;20220;-74
2024/03/18 05:13:10;;;;;;;0.30;0.20;;;8.10;99.90;;;;;;5068662;28;20379;-74
2024/03/18 05:15:37;;;;;;;0.30;0.20;;;8.10;99.90;;;;;;5074490;28;20196;-81
2024/03/18 05:18:03;;;;;;;0.30;0.20;;;8.20;99.90;;;;;;5072205;28;20232;-74
2024/03/18 05:20:30;;;;;;;0.30;0.20;;;8.20;99.90;;;;;;5074358;28;20181;-80
2024/03/18 05:22:56;;;;;;;0.30;0.20;;;8.20;99.90;;;;;;5074065;28;20197;-81
2024/03/18 05:25:22;;;;;;;0.30;0.20;;;8.30;99.90;;;;;;5072302;28;20181;-74
2024/03/18 05:27:47;;;;;;;0.30;0.20;;;8.30;99.90;;;;;;5076554;28;20197;-74
2024/03/18 05:30:13;;;;;;;0.30;0.20;;;8.30;99.90;;;;;;5072266;28;20472;-74
2024/03/18 05:32:39;;;;;;;0.30;0.20;;;8.40;99.90;;;;;;5077232;28;20207;-74
2024/03/18 05:35:05;;;;;;;0.30;0.20;;;8.40;99.90;;;;;;5073966;28;20181;-75
2024/03/18 05:37:31;;;;;;;0.30;0.20;;;8.50;99.90;;;;;;5075465;28;20189;-74
2024/03/18 05:39:56;;;;;;;0.30;0.20;;;8.60;99.90;;;;;;5072350;28;20187;-74
2024/03/18 05:42:22;;;;;;;0.30;0.20;;;8.60;99.90;;;;;;5072931;28;20545;-80
2024/03/18 05:44:49;;;;;;;0.30;0.20;;;8.60;99.90;;;;;;5073010;28;20575;-74
2024/03/18 05:47:15;;;;;;;0.30;0.20;;;8.70;99.90;;;;;;5073185;28;20161;-80
2024/03/18 05:49:41;;;;;;;0.30;0.20;;;8.70;99.90;;;;;;5075499;28;20172;-80
2024/03/18 05:52:07;;;;;;;0.30;0.20;;;8.70;99.90;;;;;;5073908;28;20178;-81
2024/03/18 05:54:33;;;;;;;0.30;0.20;;;8.80;99.90;;;;;;5073930;28;20176;-80
2024/03/18 05:56:59;;;;;;;0.30;0.20;;;8.80;99.90;;;;;;5074208;28;20223;-79
2024/03/18 05:59:24;;;;;;;0.30;0.20;;;8.90;99.90;;;;;;5079578;28;20811;-80
2024/03/18 06:01:51;;;;;;;0.30;0.20;;;9.00;99.90;;;;;;5079966;28;20191;-77
2024/03/18 06:04:17;;;;;;;0.30;0.30;;;9.00;99.90;;;;;;5079398;28;20215;-73
2024/03/18 06:06:43;;;;;;;0.30;0.20;;;9.10;99.90;;;;;;5075373;28;20180;-81
2024/03/18 06:09:08;;;;;;;0.30;0.20;;;9.10;99.90;;;;;;5076379;28;20193;-74
2024/03/18 06:11:35;;;;;;;0.30;0.20;;;9.20;99.90;;;;;;5076147;28;20776;-81
2024/03/18 06:14:01;;;;;;;0.30;0.20;;;9.20;99.90;;;;;;5076546;28;20334;-80
2024/03/18 06:16:27;;;;;;;0.30;0.20;;;9.10;99.90;;;;;;5076205;28;20617;-79
2024/03/18 06:18:54;;;;;;;0.30;0.20;;;9.10;99.90;;;;;;5072206;28;20249;-74
2024/03/18 06:21:20;;;;;;;0.30;0.20;;;9.10;99.90;;;;;;5070324;28;20206;-74
2024/03/18 06:23:51;;;;;;;0.30;0.20;;;9.10;99.90;;;;;;5083560;28;20223;-81
2024/03/18 06:26:17;;;;;;;1.58;1.48;;;9.10;99.90;;;;;;5085446;28;20639;-80
2024/03/18 06:28:44;;;;;;;0.30;0.20;;;9.10;99.90;;;;;;5084557;28;20270;-81
2024/03/18 06:31:11;;;;;;;5.10;4.90;;;9.10;99.90;;;;;;5081858;28;20448;-80
2024/03/18 06:33:37;;;;;;;0.30;0.20;;;9.20;99.90;;;;;;5083324;28;20246;-74
2024/03/18 06:36:09;;;;;;;0.30;0.20;;;9.30;99.90;;;;;;5083393;28;20316;-80
2024/03/18 06:38:35;;;;;;;0.30;0.20;;;9.40;99.90;;;;;;5084392;28;20199;-74
2024/03/18 06:41:01;;;;;;;0.30;0.20;;;9.40;99.90;;;;;;5083137;28;20917;-80
2024/03/18 06:43:27;;;;;;;0.30;0.20;;;9.50;99.90;;;;;;5085542;28;20480;-79
2024/03/18 06:45:52;;;;;;;0.80;0.80;;;9.50;99.90;;;;;;5085076;28;20532;-80
2024/03/18 06:48:18;;;;;;;0.30;0.20;;;9.60;99.90;;;;;;5081239;28;20281;-80
2024/03/18 06:50:46;;;;;;;0.97;0.97;;;9.60;99.90;;;;;;5082824;28;20218;-81
2024/03/18 06:53:11;;;;;;;0.30;0.20;;;9.70;99.90;;;;;;5077501;28;20588;-78
2024/03/18 06:55:40;;;;;;;0.30;0.20;;;9.80;99.90;;;;;;5083730;28;20173;-81
2024/03/18 06:58:06;;;;;;;0.30;0.20;;;9.80;99.90;;;;;;5086062;28;20433;-81
2024/03/18 07:00:32;;;;;;;2.10;2.00;;;9.90;99.90;;;;;;5087287;28;20267;-82
2024/03/18 07:02:58;;;;;;;0.30;0.20;;;9.90;99.90;;;;;;5085453;28;20655;-81
2024/03/18 07:05:24;;;;;;;0.30;0.20;;;10.00;99.90;;;;;;5083677;28;20234;-81
2024/03/18 07:07:50;;;;;;;0.30;0.20;;;10.10;99.90;;;;;;5080219;28;20894;-81
2024/03/18 07:10:17;;;;;;;0.30;0.20;;;10.10;99.90;;;;;;5077088;28;20299;-81
2024/03/18 07:12:44;;;;;;;0.30;0.20;;;10.20;99.90;;;;;;5066969;28;20270;-81
2024/03/18 07:15:11;;;;;;;0.30;0.20;;;10.30;99.90;;;;;;5077155;28;20208;-74
2024/03/18 07:17:40;;;;;;;0.30;0.20;;;10.40;99.90;;;;;;5073651;28;20310;-81
2024/03/18 07:20:08;;;;;;;0.30;0.20;;;10.50;99.90;;;;;;5079206;28;20300;-81
2024/03/18 07:22:34;;;;;;;0.30;0.20;;;10.60;99.90;;;;;;5078737;28;20197;-74
2024/03/18 07:25:00;;;;;;;0.30;0.20;;;10.60;99.90;;;;;;5079933;28;20188;-82
2024/03/18 07:27:27;;;;;;;0.30;0.20;;;10.70;99.90;;;;;;5078230;28;20184;-75
2024/03/18 07:29:57;;;;;;;0.30;0.20;;;10.80;99.90;;;;;;5082402;28;20214;-75
2024/03/18 07:32:25;;;;;;;0.30;0.20;;;10.90;99.90;;;;;;5075033;28;20265;-82
2024/03/18 07:34:52;;;;;;;0.30;0.20;;;11.10;99.90;;;;;;5081166;28;20191;-82
2024/03/18 07:37:18;;;;;;;0.85;0.85;;;11.10;99.90;;;;;;5077765;28;20184;-74
2024/03/18 07:39:45;;;;;;;0.30;0.30;;;11.20;99.90;;;;;;5079390;28;20388;-75
2024/03/18 07:42:11;;;;;;;0.30;0.20;;;11.30;99.90;;;;;;5074515;28;20184;-80
2024/03/18 07:44:41;;;;;;;0.30;0.20;;;11.30;99.90;;;;;;5079084;28;20181;-82
2024/03/18 07:47:08;;;;;;;0.30;0.30;;;11.50;99.90;;;;;;5078914;28;20970;-80
2024/03/18 07:49:36;;;;;;;0.30;0.20;;;11.60;99.90;;;;;;5076076;28;20429;-74
2024/03/18 07:52:03;;;;;;;1.20;1.20;;;11.80;99.90;;;;;;5075632;28;20447;-82
2024/03/18 07:54:30;;;;;;;0.30;0.20;;;11.90;99.80;;;;;;5079186;28;20184;-76
2024/03/18 07:56:56;;;;;;;2.80;1.80;;;12.00;99.60;;;;;;5072796;28;20165;-76
2024/03/18 07:59:22;;;;;;;0.30;0.20;;;12.20;99.80;;;;;;5069832;28;20452;-75
2024/03/18 08:01:48;;;;;;;0.30;0.20;;;12.30;99.40;;;;;;5080727;28;20429;-81
2024/03/18 08:04:14;;;;;;;0.30;0.20;;;12.40;98.60;;;;;;5083393;28;20529;-75
2024/03/18 08:06:46;;;;;;;0.30;0.20;;;12.50;98.60;;;;;;5070230;28;20437;-77
2024/03/18 08:09:12;;;;;;;0.43;0.40;;;12.70;98.70;;;;;;5080568;28;20948;-81
2024/03/18 08:11:37;;;;;;;0.30;0.20;;;12.80;98.10;;;;;;5082995;28;20555;-75
2024/03/18 08:14:03;;;;;;;0.87;0.87;;;13.00;97.60;;;;;;5078165;28;20453;-81
2024/03/18 08:16:28;;;;;;;0.30;0.20;;;13.10;96.90;;;;;;5074630;28;20177;-75
2024/03/18 08:18:54;;;;;;;0.30;0.20;;;13.20;96.90;;;;;;5082383;28;20705;-75
2024/03/18 08:21:20;;;;;;;0.47;0.47;;;13.40;96.50;;;;;;5078085;28;20295;-74
2024/03/18 08:23:45;;;;;;;5.10;4.90;;;13.70;96.80;;;;;;5082183;28;20802;-75
2024/03/18 08:26:11;;;;;;;0.43;0.43;;;14.20;95.90;;;;;;5071729;28;20185;-75
2024/03/18 08:28:37;;;;;;;0.40;0.30;;;14.90;95.10;;;;;;5074609;28;20300;-75
2024/03/18 08:31:03;;;;;;;0.73;0.73;;;15.70;94.40;;;;;;5079663;28;20580;-80
2024/03/18 08:33:28;;;;;;;0.40;0.20;;;16.60;93.40;;;;;;5081112;28;20203;-81
2024/03/18 08:35:57;;;;;;;0.40;0.30;;;17.60;92.70;;;;;;5081827;28;20439;-75
2024/03/18 08:38:23;;;;;;;0.40;0.20;;;18.70;91.10;;;;;;5082201;28;20213;-74
2024/03/18 08:40:55;;;;;;;0.67;0.67;;;19.80;88.70;;;;;;5081382;28;20629;-75
2024/03/18 08:43:22;;;;;;;0.40;0.20;;;20.60;85.60;;;;;;5080641;28;20425;-75
2024/03/18 08:45:55;;;;;;;2.30;2.20;;;21.40;82.80;;;;;;5078593;28;20439;-75
2024/03/18 08:48:21;;;;;;;0.40;0.20;;;22.00;80.60;;;;;;5077324;28;20457;-75
2024/03/18 08:50:47;;;;;;;0.40;0.20;;;22.80;78.30;;;;;;5081455;28;20610;-75
2024/03/18 08:53:13;;;;;;;0.40;0.30;;;23.60;75.30;;;;;;5081590;28;20472;-81
2024/03/18 08:55:39;;;;;;;0.40;0.30;;;24.40;74.10;;;;;;5081502;28;20429;-82
2024/03/18 08:58:05;;;;;;;0.60;0.60;;;24.90;72.20;;;;;;5081322;28;20424;-74
2024/03/18 09:00:31;;;;;;;0.30;0.20;;;25.40;69.00;;;;;;5076210;28;20210;-81
2024/03/18 09:02:57;;;;;;;0.30;0.20;;;25.50;68.40;;;;;;5079131;28;20442;-82
2024/03/18 09:05:23;;;;;;;0.30;0.20;;;25.60;68.20;;;;;;5075905;28;20191;-82
2024/03/18 09:07:49;;;;;;;0.30;0.20;;;25.80;66.60;;;;;;5077121;28;20885;-82
2024/03/18 09:10:15;;;;;;;0.67;0.67;;;25.80;65.10;;;;;;5079093;28;20473;-81
2024/03/18 09:12:41;;;;;;;2.63;2.53;;;25.70;64.10;;;;;;5080458;28;20447;-75
2024/03/18 09:15:08;;;;;;;0.40;0.30;;;25.20;64.40;;;;;;5078528;28;20269;-81
2024/03/18 09:17:33;;;;;;;0.87;0.87;;;24.80;64.50;;;;;;5070831;28;20455;-82
2024/03/18 09:19:59;;;;;;;2.13;0.50;;;24.50;66.10;;;;;;5071954;28;20433;-81
2024/03/18 09:22:25;;;;;;;0.30;0.20;;;24.30;65.20;;;;;;5073470;28;20184;-81
2024/03/18 09:24:51;;;;;;;1.13;1.13;;;24.30;66.10;;;;;;5072288;28;20189;-75
2024/03/18 09:27:17;;;;;;;0.63;0.63;;;24.20;65.50;;;;;;5072843;28;20604;-74
2024/03/18 09:29:43;;;;;;;0.30;0.20;;;24.20;65.30;;;;;;5070161;28;20355;-81
2024/03/18 09:32:09;;;;;;;0.30;0.20;;;24.20;64.20;;;;;;5073631;28;20443;-74
2024/03/18 09:34:35;;;;;;;0.30;0.23;;;24.30;64.50;;;;;;5078372;28;20406;-75
2024/03/18 09:37:00;;;;;;;1.03;1.03;;;24.60;64.80;;;;;;5076122;28;20593;-74
2024/03/18 09:39:26;;;;;;;0.30;0.20;;;24.90;63.00;;;;;;5083661;28;20283;-74
2024/03/18 09:41:53;;;;;;;0.83;0.50;;;25.10;61.60;;;;;;5084289;28;20279;-81
2024/03/18 09:44:19;;;;;;;0.30;0.20;;;25.20;61.80;;;;;;5083239;28;20787;-81
2024/03/18 09:46:47;;;;;;;0.30;0.20;;;25.40;61.60;;;;;;5079751;28;20459;-74
2024/03/18 09:49:17;;;;;;;0.30;0.20;;;25.50;61.70;;;;;;5081730;28;20735;-81
2024/03/18 09:51:47;;;;;;;0.30;0.20;;;25.40;61.10;;;;;;5080905;28;20583;-81
2024/03/18 09:54:17;;;;;;;0.37;0.30;;;25.20;60.60;;;;;;5080430;28;21175;-74
2024/03/18 09:57:03;;;;;;;0.40;0.30;;;25.10;60.50;;;;;;5070971;28;20472;-74
2024/03/18 09:59:29;;;;;;;0.50;0.50;;;24.90;59.30;;;;;;5073957;28;20586;-74
2024/03/18 10:01:54;;;;;;;0.30;0.20;;;24.60;60.20;;;;;;5076127;28;20515;-74
2024/03/18 10:04:21;;;;;;;0.30;0.30;;;24.40;61.40;;;;;;5082103;28;20749;-81
2024/03/18 10:06:47;;;;;;;0.30;0.20;;;24.30;61.30;;;;;;5081596;28;20207;-80
2024/03/18 10:09:15;;;;;;;0.30;0.20;;;24.20;60.70;;;;;;5082771;28;20440;-81
2024/03/18 10:11:44;;;;;;;0.30;0.20;;;24.20;60.20;;;;;;5083069;28;20242;-80
2024/03/18 10:14:11;;;;;;;0.30;0.20;;;24.10;60.10;;;;;;5083034;28;20494;-81
2024/03/18 10:16:38;;;;;;;0.40;0.30;;;23.80;60.80;;;;;;5080774;28;20964;-80
2024/03/18 10:19:06;;;;;;;0.30;0.20;;;23.50;61.80;;;;;;5081381;28;20459;-74
2024/03/18 10:21:35;;;;;;;0.30;0.20;;;23.00;61.60;;;;;;5081274;28;20823;-74
2024/03/18 10:24:00;;;;;;;0.30;0.20;;;22.60;62.50;;;;;;5083713;28;20500;-81
2024/03/18 10:26:26;;;;;;;0.50;0.47;;;22.20;62.00;;;;;;5081010;28;20551;-81
2024/03/18 10:28:52;;;;;;;0.33;0.30;;;21.80;63.10;;;;;;5081672;28;20291;-81
2024/03/18 10:31:18;;;;;;;0.30;0.20;;;21.50;64.00;;;;;;5079024;28;20286;-81
2024/03/18 10:33:45;;;;;;;0.30;0.20;;;21.20;63.40;;;;;;5079884;28;20208;-74
2024/03/18 10:36:26;;;;;;;0.30;0.20;;;21.00;63.30;;;;;;5081014;28;20330;-74
2024/03/18 10:39:24;;;;;;;0.30;0.20;;;20.60;63.30;;;;;;5081811;28;20795;-74
2024/03/18 10:41:52;;;;;;;0.30;0.20;;;20.10;64.00;;;;;;5081605;28;20436;-74
2024/03/18 10:44:20;;;;;;;0.30;0.20;;;19.70;65.60;;;;;;5081284;28;20425;-81
2024/03/18 10:46:47;;;;;;;0.40;0.20;;;19.60;66.60;;;;;;5081116;28;20497;-74
2024/03/18 10:49:18;;;;;;;0.30;0.20;;;19.40;64.80;;;;;;5081265;28;20800;-80
2024/03/18 10:51:51;;;;;;;0.30;0.20;;;19.20;64.80;;;;;;5080192;28;21137;-74
2024/03/18 10:54:17;;;;;;;0.30;0.20;;;19.10;66.10;;;;;;5083171;28;20425;-74
2024/03/18 10:56:47;;;;;;;0.50;0.50;;;19.00;65.30;;;;;;5077344;28;20519;-81
2024/03/18 10:59:15;;;;;;;0.30;0.20;;;18.80;65.40;;;;;;5079259;28;20824;-81
2024/03/18 11:01:42;;;;;;;0.40;0.40;;;18.70;66.80;;;;;;5077659;28;20440;-74
2024/03/18 11:04:21;;;;;;;0.30;0.20;;;18.60;66.50;;;;;;5068021;28;21005;-81
2024/03/18 11:06:49;;;;;;;0.30;0.30;;;18.60;67.60;;;;;;5072771;28;20791;-81
2024/03/18 11:09:18;;;;;;;0.30;0.20;;;18.60;67.00;;;;;;5072466;28;20448;-74
2024/03/18 11:11:44;;;;;;;0.30;0.20;;;18.70;67.40;;;;;;5074811;28;20486;-81
2024/03/18 11:14:12;;;;;;;0.30;0.30;;;18.70;65.80;;;;;;5080215;28;20790;-75
2024/03/18 11:16:43;;;;;;;0.30;0.20;;;18.70;66.80;;;;;;5081400;28;20444;-75
2024/03/18 11:19:16;;;;;;;0.30;0.20;;;18.70;67.00;;;;;;5080540;28;20444;-75
2024/03/18 11:21:42;;;;;;;0.30;0.20;;;18.70;67.20;;;;;;5072806;28;20863;-80
2024/03/18 11:24:20;;;;;;;0.30;0.20;;;18.70;66.50;;;;;;5065869;28;20638;-80
2024/03/18 11:26:46;;;;;;;0.30;0.20;;;18.60;65.30;;;;;;5078394;28;20439;-75
2024/03/18 11:29:14;;;;;;;0.30;0.20;;;18.50;66.20;;;;;;5076908;28;20987;-81
2024/03/18 11:31:40;;;;;;;0.30;0.20;;;18.40;67.90;;;;;;5080100;28;20500;-80
2024/03/18 11:34:10;;;;;;;0.30;0.20;;;18.40;67.30;;;;;;5080461;28;20849;-81
2024/03/18 11:36:39;;;;;;;0.30;0.20;;;18.40;66.60;;;;;;5080074;28;21589;-80
2024/03/18 11:39:07;;;;;;;0.30;0.20;;;18.50;66.10;;;;;;5078983;28;20555;-81
2024/03/18 11:41:35;;;;;;;0.40;0.30;;;18.60;65.80;;;;;;5072473;28;20523;-74
2024/03/18 11:44:01;;;;;;;0.30;0.20;;;18.50;65.70;;;;;;5066381;28;21323;-81
2024/03/18 11:46:28;;;;;;;0.30;0.20;;;18.50;67.90;;;;;;5067309;28;20953;-74
2024/03/18 11:49:05;;;;;;;0.30;0.20;;;18.40;65.50;;;;;;5074583;28;20838;-74
2024/03/18 11:51:32;;;;;;;0.50;0.43;;;18.40;66.90;;;;;;5069908;28;20702;-82
2024/03/18 11:54:00;;;;;;;0.30;0.20;;;18.40;66.60;;;;;;5070075;28;20902;-82
2024/03/18 11:56:27;;;;;;;0.30;0.20;;;18.40;66.50;;;;;;5069880;28;20625;-76
2024/03/18 11:58:58;;;;;;;0.30;0.30;;;18.40;68.10;;;;;;5069328;28;20444;-75
2024/03/18 12:01:28;;;;;;;0.50;0.50;;;18.40;66.50;;;;;;5077414;28;20801;-82
2024/03/18 12:03:53;;;;;;;0.30;0.20;;;18.40;66.10;;;;;;5069007;28;20823;-81
2024/03/18 12:06:19;;;;;;;0.30;0.20;;;18.50;65.40;;;;;;5067384;28;20429;-81
2024/03/18 12:08:45;;;;;;;0.40;0.40;;;18.40;64.80;;;;;;5065581;28;20755;-82
2024/03/18 12:11:11;;;;;;;0.30;0.20;;;18.40;65.30;;;;;;5071947;28;20421;-75
2024/03/18 12:13:38;;;;;;;0.30;0.20;;;18.40;66.60;;;;;;5074831;28;20468;-75
2024/03/18 12:16:05;;;;;;;0.30;0.20;;;18.40;66.30;;;;;;5063746;28;20435;-82
2024/03/18 12:18:31;;;;;;;0.30;0.30;;;18.40;67.70;;;;;;5074255;28;20488;-76
2024/03/18 12:20:57;;;;;;;0.30;0.30;;;18.50;66.40;;;;;;5066559;28;20451;-76
2024/03/18 12:29:01;;;;;;;3.03;1.23;;;18.60;66.60;;;;;;5062713;28;20481;-81
2024/03/18 12:31:30;;;;;;;0.30;0.20;;;18.60;67.20;;;;;;5070982;28;20829;-81
2024/03/18 12:33:59;;;;;;;0.40;0.30;;;18.70;65.90;;;;;;5070311;28;20562;-75
2024/03/18 12:36:25;;;;;;;0.30;0.20;;;18.70;66.40;;;;;;5073154;28;20778;-82
2024/03/18 12:38:51;;;;;;;0.30;0.20;;;18.70;66.20;;;;;;5074445;28;20451;-82
2024/03/18 12:41:21;;;;;;;0.30;0.20;;;18.50;66.60;;;;;;5065124;28;20901;-81
2024/03/18 12:43:48;;;;;;;0.30;0.20;;;18.50;65.90;;;;;;5072844;28;20204;-82
2024/03/18 12:46:18;;;;;;;0.30;0.30;;;18.40;65.50;;;;;;5069109;28;20424;-82
2024/03/18 12:48:45;;;;;;;0.30;0.20;;;18.30;66.60;;;;;;5073212;28;20472;-75
2024/03/18 12:51:15;;;;;;;0.30;0.20;;;18.30;66.60;;;;;;5073170;28;20525;-82
2024/03/18 12:53:50;;;;;;;0.30;0.20;;;18.20;66.20;;;;;;5071732;28;20807;-76
2024/03/18 12:56:17;;;;;;;0.30;0.20;;;18.30;66.50;;;;;;5066794;28;20446;-81